Terminal Aerodrome Forecast
Issued by NWS

Home | Current Version | Previous Version | Text Only | Print | Product List | Glossary Off
Versions: 1 2 3 4 5 6 7 8 9 10 11 12 13 14

000
FTUS43 KUNR 012323
TAFGCC
TAF
KGCC 012323Z 0200/0224 35012KT P6SM SKC
     FM020400 24006KT P6SM SKC
     FM021800 36013KT P6SM SKC=

USA.gov is the U.S. government's official web portal to all federal, state and local government web resources and services.